Time;durP1;ratioP1;P1;durP2;ratioP2;P2;SDS_P1;SDS_P2;PMS_P1;PMS_P2;Temp;Humidity;BMP_temperature;BMP_pressure;BME280_temperature;BME280_humidity;BME280_pressure;Samples;Min_cycle;Max_cycle;Signal;HPM_P1;HPM_P2
2022/06/08 00:01:21;;;;;;;39.40;26.50;;;;;;;14.29;100.00;100907.16;5067187;28;20021;-79
2022/06/08 00:03:51;;;;;;;36.17;25.73;;;;;;;14.27;100.00;100909.09;5068533;28;20030;-79
2022/06/08 00:06:18;;;;;;;38.47;24.48;;;;;;;14.25;100.00;100900.28;5068047;28;20415;-79
2022/06/08 00:08:43;;;;;;;34.17;24.75;;;;;;;14.24;100.00;100897.72;5068101;28;20020;-78
2022/06/08 00:11:08;;;;;;;37.83;25.23;;;;;;;14.22;100.00;100895.16;5068048;28;20024;-79
2022/06/08 00:13:34;;;;;;;40.83;28.52;;;;;;;14.23;100.00;100894.19;5060060;28;20469;-79
2022/06/08 00:16:00;;;;;;;36.47;25.77;;;;;;;14.25;100.00;100891.34;5069249;28;20388;-80
2022/06/08 00:18:25;;;;;;;39.55;27.33;;;;;;;14.24;100.00;100887.75;5065895;28;20051;-80
2022/06/08 00:20:51;;;;;;;37.75;26.35;;;;;;;14.27;100.00;100882.06;5069090;28;20450;-80
2022/06/08 00:23:17;;;;;;;35.90;25.42;;;;;;;14.28;100.00;100880.25;5066510;28;20506;-79
2022/06/08 00:25:42;;;;;;;39.03;25.67;;;;;;;14.28;100.00;100877.53;5069637;28;20033;-79
2022/06/08 00:28:08;;;;;;;41.67;29.15;;;;;;;14.29;100.00;100884.63;5069487;28;20055;-79
2022/06/08 00:30:34;;;;;;;37.53;26.23;;;;;;;14.26;100.00;100874.97;5068898;28;20032;-79
2022/06/08 00:32:59;;;;;;;39.60;28.40;;;;;;;14.25;100.00;100875.13;5066904;28;20039;-79
2022/06/08 00:35:25;;;;;;;36.63;26.60;;;;;;;14.25;100.00;100875.97;5067781;28;20024;-79
2022/06/08 00:37:51;;;;;;;38.08;27.58;;;;;;;14.22;100.00;100875.38;5069671;28;20451;-79
2022/06/08 00:40:20;;;;;;;37.17;26.52;;;;;;;14.20;100.00;100869.25;5068470;28;20031;-80
2022/06/08 00:42:47;;;;;;;37.88;27.92;;;;;;;14.19;100.00;100862.13;5066858;28;20039;-80
2022/06/08 00:45:19;;;;;;;38.90;26.40;;;;;;;14.18;100.00;100861.28;5067938;28;20066;-80
2022/06/08 00:47:50;;;;;;;37.80;27.40;;;;;;;14.13;100.00;100869.78;5068587;28;20442;-80
2022/06/08 00:50:25;;;;;;;39.60;26.13;;;;;;;14.12;100.00;100869.94;5069276;28;20318;-80
2022/06/08 00:52:51;;;;;;;38.30;25.88;;;;;;;14.07;100.00;100858.66;5067113;28;20030;-79
2022/06/08 00:55:19;;;;;;;35.92;25.10;;;;;;;14.06;100.00;100854.25;5069966;28;20020;-79
2022/06/08 00:57:53;;;;;;;34.97;25.63;;;;;;;14.04;100.00;100857.09;5070133;28;20503;-79
2022/06/08 01:00:22;;;;;;;39.80;25.90;;;;;;;14.03;100.00;100851.84;5065901;28;20092;-80
2022/06/08 01:02:48;;;;;;;;;;;;;;;14.09;100.00;100846.72;5060896;28;20484;-80
2022/06/08 01:05:19;;;;;;;41.05;27.33;;;;;;;13.98;100.00;100842.28;5064235;28;19923;-80
2022/06/08 01:07:45;;;;;;;36.50;25.10;;;;;;;13.95;100.00;100842.56;5063497;28;20056;-79
2022/06/08 01:10:18;;;;;;;36.85;25.58;;;;;;;13.91;100.00;100835.69;5066644;28;20031;-80
2022/06/08 01:12:45;;;;;;;36.67;23.90;;;;;;;13.89;100.00;100839.53;5068019;28;20028;-79
2022/06/08 01:15:13;;;;;;;36.70;25.98;;;;;;;13.85;100.00;100838.06;5069101;28;20039;-79
2022/06/08 01:17:39;;;;;;;36.58;23.13;;;;;;;13.84;100.00;100828.28;5065475;28;20102;-79
2022/06/08 01:20:06;;;;;;;38.03;25.15;;;;;;;13.80;100.00;100820.41;5068693;28;20017;-79
2022/06/08 01:22:31;;;;;;;37.55;23.98;;;;;;;13.76;100.00;100812.72;5067618;28;20047;-79
2022/06/08 01:24:57;;;;;;;35.22;24.52;;;;;;;13.74;100.00;100814.72;5065658;28;20032;-79
2022/06/08 01:27:44;;;;;;;34.78;23.60;;;;;;;13.76;100.00;100812.72;5063386;28;20494;-79
2022/06/08 01:30:25;;;;;;;35.83;23.98;;;;;;;13.72;100.00;100816.66;5066025;28;20129;-79
2022/06/08 01:32:56;;;;;;;35.95;24.35;;;;;;;13.66;100.00;100806.41;5068492;28;20051;-79
2022/06/08 01:35:32;;;;;;;36.65;24.67;;;;;;;13.63;100.00;100797.59;5066217;28;20066;-79
2022/06/08 01:38:28;;;;;;;42.47;27.17;;;;;;;13.66;100.00;100795.59;5069269;28;20024;-79
2022/06/08 01:41:18;;;;;;;35.67;24.95;;;;;;;13.66;100.00;100793.78;5055630;28;20107;-79
2022/06/08 01:43:53;;;;;;;36.85;24.77;;;;;;;13.64;100.00;100788.47;5070802;28;20055;-79
2022/06/08 01:46:25;;;;;;;36.10;24.73;;;;;;;13.66;100.00;100788.38;5072384;28;20055;-79
2022/06/08 01:49:12;;;;;;;38.00;24.42;;;;;;;13.66;100.00;100784.81;5060306;28;20176;-79
2022/06/08 01:52:05;;;;;;;37.92;23.15;;;;;;;13.63;100.00;100783.22;5069813;28;20056;-79
2022/06/08 01:54:56;;;;;;;34.72;21.95;;;;;;;13.66;100.00;100768.59;5069483;28;20024;-79
2022/06/08 01:57:56;;;;;;;35.03;22.05;;;;;;;13.68;100.00;100769.34;5063310;28;20078;-80
2022/06/08 02:00:22;;;;;;;33.60;21.38;;;;;;;13.68;100.00;100761.22;5070249;28;20051;-80
2022/06/08 02:03:09;;;;;;;31.95;20.55;;;;;;;13.70;100.00;100761.94;5069237;28;20036;-80
2022/06/08 02:05:56;;;;;;;33.30;20.02;;;;;;;13.69;100.00;100762.94;5071560;28;20537;-80
2022/06/08 02:08:34;;;;;;;31.83;17.85;;;;;;;13.71;100.00;100751.00;5070191;28;20028;-79
2022/06/08 02:11:15;;;;;;;29.52;17.25;;;;;;;13.70;100.00;100748.44;5067491;28;20031;-80
2022/06/08 02:13:45;;;;;;;30.98;19.95;;;;;;;13.62;99.94;100752.66;5069305;28;20446;-80
2022/06/08 02:16:28;;;;;;;30.27;17.70;;;;;;;13.63;100.00;100743.59;5072498;28;20029;-80
2022/06/08 02:19:09;;;;;;;28.02;17.45;;;;;;;13.62;100.00;100733.75;5057750;28;20444;-80
2022/06/08 02:21:42;;;;;;;30.27;17.55;;;;;;;13.58;100.00;100726.91;5070760;28;20575;-80
2022/06/08 02:24:30;;;;;;;30.13;18.35;;;;;;;13.59;99.76;100725.94;5068708;28;20051;-80
2022/06/08 02:27:01;;;;;;;28.35;17.63;;;;;;;13.54;100.00;100722.78;5070592;28;20037;-79
2022/06/08 02:29:38;;;;;;;28.63;16.70;;;;;;;13.51;100.00;100720.34;5071245;28;20032;-79
2022/06/08 02:35:14;;;;;;;27.30;15.65;;;;;;;13.44;99.90;100716.47;5071618;28;20035;-79
2022/06/08 02:37:41;;;;;;;27.85;15.02;;;;;;;13.40;99.76;100712.34;5055865;28;20031;-79
2022/06/08 02:40:12;;;;;;;28.02;16.20;;;;;;;13.38;100.00;100709.78;5072498;28;20020;-79
2022/06/08 02:42:45;;;;;;;29.40;16.58;;;;;;;13.38;100.00;100708.91;5068500;28;20071;-79
2022/06/08 02:45:34;;;;;;;29.70;16.42;;;;;;;13.39;100.00;100711.47;5070289;28;20043;-79
2022/06/08 02:48:03;;;;;;;28.23;15.35;;;;;;;13.33;99.43;100705.75;5069792;28;20047;-79
2022/06/08 02:50:29;;;;;;;29.23;16.27;;;;;;;13.29;100.00;100706.03;5072628;28;20031;-79
2022/06/08 02:53:09;;;;;;;27.63;15.70;;;;;;;13.32;100.00;100701.34;5069351;28;20020;-79
2022/06/08 02:55:50;;;;;;;28.15;15.93;;;;;;;13.27;100.00;100694.47;5072210;28;20029;-79
2022/06/08 02:58:39;;;;;;;27.95;14.90;;;;;;;13.25;100.00;100688.38;5071115;28;20479;-79
2022/06/08 03:01:13;;;;;;;26.80;15.02;;;;;;;13.23;100.00;100692.19;5071891;28;20428;-79
2022/06/08 03:03:47;;;;;;;25.80;14.27;;;;;;;13.18;100.00;100684.50;5064805;28;20390;-79
2022/06/08 03:06:17;;;;;;;26.70;13.52;;;;;;;13.16;100.00;100691.84;5060872;28;20576;-79
2022/06/08 03:08:49;;;;;;;27.55;15.63;;;;;;;13.16;100.00;100686.47;5068203;28;20032;-80
2022/06/08 03:11:16;;;;;;;23.95;12.57;;;;;;;13.13;100.00;100685.88;5068585;28;20092;-80
2022/06/08 03:14:00;;;;;;;26.52;14.35;;;;;;;13.13;100.00;100686.72;5069562;28;20434;-80
2022/06/08 03:16:41;;;;;;;26.63;13.45;;;;;;;13.15;100.00;100689.28;5069820;28;20043;-80
2022/06/08 03:19:08;;;;;;;28.65;13.35;;;;;;;13.16;100.00;100683.75;5070513;28;20068;-80
2022/06/08 03:21:34;;;;;;;24.33;12.85;;;;;;;13.17;100.00;100680.09;5071009;28;20040;-80
2022/06/08 03:24:00;;;;;;;23.80;12.73;;;;;;;13.18;100.00;100678.25;5068952;28;20035;-79
2022/06/08 03:26:34;;;;;;;25.90;12.95;;;;;;;13.20;100.00;100681.66;5069739;28;20044;-79
2022/06/08 03:28:59;;;;;;;23.17;11.55;;;;;;;13.20;100.00;100690.59;5068897;28;20024;-79
2022/06/08 03:31:25;;;;;;;23.80;11.80;;;;;;;13.21;100.00;100684.22;5068860;28;20051;-79
2022/06/08 03:33:50;;;;;;;23.77;12.75;;;;;;;13.23;100.00;100692.19;5069326;28;20035;-79
2022/06/08 03:36:15;;;;;;;24.08;11.02;;;;;;;13.24;100.00;100683.13;5070974;28;20028;-79
2022/06/08 03:38:42;;;;;;;23.10;11.00;;;;;;;13.25;100.00;100687.50;5068723;28;20085;-79
2022/06/08 03:41:07;;;;;;;25.38;11.77;;;;;;;13.25;100.00;100684.81;5069493;28;20081;-79
2022/06/08 03:43:33;;;;;;;22.90;10.88;;;;;;;13.26;100.00;100683.81;5069727;28;20107;-79
2022/06/08 03:46:02;;;;;;;24.02;11.73;;;;;;;13.28;100.00;100680.00;5071875;28;20029;-79
2022/06/08 03:48:28;;;;;;;23.67;9.85;;;;;;;13.33;100.00;100692.25;5050464;28;20028;-79
2022/06/08 03:50:55;;;;;;;23.55;10.85;;;;;;;13.35;100.00;100691.13;5070265;28;20677;-79
2022/06/08 03:53:26;;;;;;;21.55;9.98;;;;;;;13.37;100.00;100688.34;5069131;28;20032;-80
2022/06/08 03:55:53;;;;;;;22.50;10.52;;;;;;;13.39;100.00;100686.34;5071063;28;20028;-80
2022/06/08 03:58:20;;;;;;;21.88;9.38;;;;;;;13.43;100.00;100687.78;5061792;28;20035;-80
2022/06/08 04:00:46;;;;;;;21.95;9.90;;;;;;;13.45;100.00;100681.25;5067632;28;20043;-80
2022/06/08 04:03:12;;;;;;;21.25;9.60;;;;;;;13.48;100.00;100677.41;5066952;28;20020;-80
2022/06/08 04:05:38;;;;;;;21.90;9.90;;;;;;;13.51;100.00;100679.00;5069283;28;20020;-80
2022/06/08 04:08:04;;;;;;;19.88;8.85;;;;;;;13.52;100.00;100670.75;5070025;28;20368;-79
2022/06/08 04:10:30;;;;;;;20.10;9.20;;;;;;;13.56;100.00;100676.75;5068488;28;20174;-79
2022/06/08 04:12:55;;;;;;;21.83;10.02;;;;;;;13.57;100.00;100664.94;5066860;28;20450;-79
2022/06/08 04:18:06;;;;;;;21.38;9.18;;;;;;;13.61;100.00;100664.53;5066016;28;20288;-79
2022/06/08 04:20:33;;;;;;;22.27;9.18;;;;;;;13.63;100.00;100657.16;5062289;28;20453;-79
2022/06/08 04:22:59;;;;;;;20.30;9.00;;;;;;;13.67;100.00;100654.19;5067196;28;20047;-79
2022/06/08 04:25:24;;;;;;;20.92;8.10;;;;;;;13.69;100.00;100653.06;5069461;28;20024;-80
2022/06/08 04:27:50;;;;;;;20.58;8.40;;;;;;;13.71;100.00;100658.34;5068708;28;20028;-80
2022/06/08 04:30:15;;;;;;;20.58;9.23;;;;;;;13.72;100.00;100654.63;5066499;28;20109;-80
2022/06/08 04:32:40;;;;;;;21.55;8.13;;;;;;;13.74;100.00;100658.06;5068840;28;20420;-80
2022/06/08 04:35:07;;;;;;;20.42;8.85;;;;;;;13.75;100.00;100659.78;5069452;28;20028;-80
2022/06/08 04:37:33;;;;;;;21.05;8.15;;;;;;;13.75;100.00;100654.38;5064877;28;20512;-80
2022/06/08 04:39:58;;;;;;;17.48;7.13;;;;;;;13.78;100.00;100656.78;5068340;28;20019;-80
2022/06/08 04:42:24;;;;;;;18.70;8.13;;;;;;;13.80;100.00;100652.94;5068333;28;20451;-80
2022/06/08 04:44:49;;;;;;;18.20;7.50;;;;;;;13.84;100.00;100642.72;5068876;28;20048;-80
2022/06/08 04:47:14;;;;;;;20.42;7.70;;;;;;;13.88;100.00;100644.16;5069137;28;20413;-80
2022/06/08 04:49:41;;;;;;;18.85;7.57;;;;;;;13.92;100.00;100642.03;5065701;28;20032;-80
2022/06/08 04:52:06;;;;;;;19.10;7.93;;;;;;;13.96;100.00;100636.19;5067155;28;20470;-80
2022/06/08 04:54:32;;;;;;;19.33;7.65;;;;;;;13.99;100.00;100632.38;5068044;28;20056;-80
2022/06/08 04:56:57;;;;;;;19.20;7.35;;;;;;;14.04;100.00;100629.22;5068404;28;20391;-80
2022/06/08 04:59:23;;;;;;;19.15;7.35;;;;;;;14.07;100.00;100629.81;5068543;28;20071;-80
2022/06/08 05:01:48;;;;;;;19.15;7.25;;;;;;;14.11;100.00;100633.09;5066840;28;20047;-80
2022/06/08 05:04:14;;;;;;;17.58;6.88;;;;;;;14.12;100.00;100629.41;5067190;28;20064;-80
2022/06/08 05:06:39;;;;;;;18.48;6.93;;;;;;;14.14;100.00;100628.25;5069553;28;20446;-80
2022/06/08 05:09:05;;;;;;;19.65;7.07;;;;;;;14.18;100.00;100639.63;5066611;28;20509;-80
2022/06/08 05:11:30;;;;;;;18.05;6.40;;;;;;;14.20;100.00;100629.53;5064483;28;20025;-80
2022/06/08 05:13:55;;;;;;;18.80;6.47;;;;;;;14.23;100.00;100623.88;5069134;28;20433;-79
2022/06/08 05:16:21;;;;;;;16.13;6.60;;;;;;;14.25;100.00;100616.44;5072506;28;20025;-80
2022/06/08 05:18:46;;;;;;;19.10;6.63;;;;;;;14.27;100.00;100617.16;5067048;28;20048;-80
2022/06/08 05:21:12;;;;;;;16.83;6.82;;;;;;;14.29;100.00;100607.06;5072566;28;20020;-80
2022/06/08 05:23:39;;;;;;;18.20;6.07;;;;;;;14.32;100.00;100603.22;5065428;28;20036;-80
2022/06/08 05:26:06;;;;;;;17.50;6.72;;;;;;;14.34;100.00;100604.78;5072608;28;20024;-79
2022/06/08 05:28:31;;;;;;;20.50;6.68;;;;;;;14.37;100.00;100605.50;5072160;28;20380;-79
2022/06/08 05:30:57;;;;;;;16.83;6.30;;;;;;;14.38;100.00;100608.06;5072874;28;20035;-79
2022/06/08 05:33:26;;;;;;;17.27;6.22;;;;;;;14.41;100.00;100601.53;5070216;28;20082;-79
2022/06/08 05:35:52;;;;;;;18.30;7.03;;;;;;;14.45;100.00;100594.81;5070806;28;20111;-80
2022/06/08 05:38:18;;;;;;;17.30;6.60;;;;;;;14.47;100.00;100595.53;5068268;28;20035;-80
2022/06/08 05:40:43;;;;;;;18.83;7.38;;;;;;;14.51;100.00;100597.78;5067506;28;20096;-80
2022/06/08 05:43:12;;;;;;;19.63;7.03;;;;;;;14.54;100.00;100591.25;5071424;28;20023;-80
2022/06/08 05:45:39;;;;;;;18.63;6.93;;;;;;;14.58;100.00;100586.41;5068987;28;20064;-79
2022/06/08 05:48:05;;;;;;;20.83;7.00;;;;;;;14.59;100.00;100582.69;5067942;28;20059;-79
2022/06/08 05:50:32;;;;;;;18.55;7.05;;;;;;;14.62;100.00;100580.56;5071266;28;20037;-80
2022/06/08 05:52:57;;;;;;;17.67;7.28;;;;;;;14.63;100.00;100571.47;5072933;28;20103;-80
2022/06/08 05:55:24;;;;;;;17.92;6.20;;;;;;;14.68;100.00;100561.09;5072932;28;20274;-79
2022/06/08 05:57:51;;;;;;;18.98;7.05;;;;;;;14.72;100.00;100560.78;5071088;28;20119;-79
2022/06/08 06:00:20;;;;;;;19.02;7.20;;;;;;;14.73;100.00;100557.94;5073274;28;20036;-79
2022/06/08 06:02:46;;;;;;;17.15;6.78;;;;;;;14.74;99.69;100559.63;5070600;28;20048;-79
2022/06/08 06:05:13;;;;;;;16.63;6.25;;;;;;;14.79;100.00;100559.19;5073174;28;20070;-79
2022/06/08 06:07:39;;;;;;;19.48;7.03;;;;;;;14.82;100.00;100559.75;5072423;28;20468;-79
2022/06/08 06:10:05;;;;;;;17.63;6.30;;;;;;;14.84;100.00;100562.31;5072037;28;20028;-79
2022/06/08 06:12:31;;;;;;;17.90;6.28;;;;;;;14.88;100.00;100565.59;5071016;28;20078;-79
2022/06/08 06:14:58;;;;;;;15.90;6.45;;;;;;;14.90;100.00;100568.97;5070530;28;20032;-79
2022/06/08 06:17:24;;;;;;;21.00;7.28;;;;;;;14.93;100.00;100561.41;5064109;28;20060;-79
2022/06/08 06:19:49;;;;;;;18.02;7.20;;;;;;;14.96;100.00;100571.09;5054398;28;20468;-79
2022/06/08 06:22:14;;;;;;;17.15;6.65;;;;;;;14.99;100.00;100568.97;5051990;28;20031;-79
2022/06/08 06:24:40;;;;;;;16.48;6.50;;;;;;;14.99;100.00;100566.25;5055002;28;20481;-79
2022/06/08 06:27:06;;;;;;;16.15;6.65;;;;;;;15.01;100.00;100574.22;5059674;28;20128;-79
2022/06/08 06:29:31;;;;;;;16.52;6.53;;;;;;;15.01;99.93;100569.66;5070507;28;20123;-79
2022/06/08 06:32:01;;;;;;;19.13;6.93;;;;;;;15.05;100.00;100582.88;5058968;28;20039;-79
2022/06/08 06:34:27;;;;;;;16.23;6.50;;;;;;;15.07;100.00;100572.78;5060080;28;20403;-79
2022/06/08 06:36:58;;;;;;;19.52;6.63;;;;;;;15.09;100.00;100565.34;5059681;28;20046;-79
2022/06/08 06:39:26;;;;;;;16.13;5.95;;;;;;;15.11;99.92;100560.63;5060965;28;20028;-79
2022/06/08 06:41:51;;;;;;;17.02;5.90;;;;;;;15.17;100.00;100565.47;5061737;28;20423;-79
2022/06/08 06:44:16;;;;;;;18.45;7.15;;;;;;;15.26;100.00;100569.13;5057564;28;20020;-79
2022/06/08 06:46:42;;;;;;;17.42;6.20;;;;;;;15.30;99.20;100565.09;5062047;28;20032;-79
2022/06/08 06:49:08;;;;;;;18.10;7.00;;;;;;;15.40;100.00;100555.06;5061106;28;20028;-79
2022/06/08 06:51:34;;;;;;;17.55;5.97;;;;;;;15.49;100.00;100558.72;5065393;28;20476;-79
2022/06/08 06:54:00;;;;;;;22.90;6.32;;;;;;;15.58;100.00;100554.25;5059505;28;20033;-78
2022/06/08 06:56:26;;;;;;;19.02;6.03;;;;;;;15.67;99.68;100550.66;5058979;28;20037;-79
2022/06/08 06:58:52;;;;;;;17.65;6.07;;;;;;;15.78;100.00;100546.84;5056420;28;20112;-78
2022/06/08 07:01:18;;;;;;;18.58;6.07;;;;;;;15.83;97.60;100544.56;5053495;28;20464;-79
2022/06/08 07:03:44;;;;;;;18.55;5.50;;;;;;;15.89;97.30;100558.34;5058555;28;20034;-79
2022/06/08 07:06:09;;;;;;;15.85;5.80;;;;;;;15.92;96.62;100542.78;5067383;28;20045;-79
2022/06/08 07:08:35;;;;;;;17.83;6.03;;;;;;;15.99;98.43;100547.44;5061817;28;20479;-78
2022/06/08 07:13:44;;;;;;;12.60;4.53;;;;;;;16.13;96.77;100542.47;5061151;28;20048;-79
2022/06/08 07:16:09;;;;;;;16.05;5.47;;;;;;;16.22;98.36;100546.94;5064690;28;20025;-79
2022/06/08 07:18:35;;;;;;;11.45;4.63;;;;;;;16.23;94.65;100545.94;5051821;28;20049;-78
2022/06/08 07:21:01;;;;;;;18.58;5.22;;;;;;;16.30;95.68;100543.47;5058100;28;20150;-79
2022/06/08 07:23:27;;;;;;;14.52;4.70;;;;;;;16.33;94.98;100541.28;5061693;28;20110;-78
2022/06/08 07:25:52;;;;;;;13.00;4.70;;;;;;;16.33;92.80;100535.84;5049233;28;20532;-79
2022/06/08 07:28:17;;;;;;;10.70;4.25;;;;;;;16.37;94.42;100539.94;5060487;28;20120;-79
2022/06/08 07:30:43;;;;;;;16.38;5.38;;;;;;;16.40;95.34;100542.34;5050763;28;20028;-79
2022/06/08 07:33:08;;;;;;;22.15;4.43;;;;;;;16.39;92.47;100535.22;5058057;28;20440;-79
2022/06/08 07:35:33;;;;;;;12.60;4.20;;;;;;;16.42;92.86;100537.59;5068793;28;20021;-79
2022/06/08 07:37:59;;;;;;;12.85;4.65;;;;;;;16.49;94.00;100528.84;5069354;28;20434;-79
2022/06/08 07:40:24;;;;;;;13.95;4.20;;;;;;;16.55;91.93;100533.63;5063251;28;20021;-79
2022/06/08 07:42:49;;;;;;;15.10;4.80;;;;;;;16.59;91.67;100526.88;5070029;28;20036;-79
2022/06/08 07:45:15;;;;;;;19.20;4.72;;;;;;;16.66;91.54;100529.78;5068569;28;20024;-79
2022/06/08 07:50:26;;;;;;;13.85;4.15;;;;;;;16.83;91.41;100531.59;5070787;28;20034;-79
2022/06/08 07:52:52;;;;;;;17.73;4.78;;;;;;;16.89;91.21;100530.97;5070404;28;20052;-79
2022/06/08 07:55:18;;;;;;;14.70;4.90;;;;;;;16.93;89.42;100539.66;5071635;28;20538;-79
2022/06/08 07:57:43;;;;;;;11.68;4.22;;;;;;;16.99;90.41;100536.28;5067255;28;20039;-79
2022/06/08 08:00:10;;;;;;;18.83;5.28;;;;;;;16.99;88.09;100535.44;5069153;28;20105;-79
2022/06/08 08:02:36;;;;;;;17.35;4.70;;;;;;;17.01;88.32;100538.84;5070201;28;20036;-79
2022/06/08 08:05:01;;;;;;;16.85;5.30;;;;;;;16.99;87.14;100538.16;5062658;28;20396;-80
2022/06/08 08:07:26;;;;;;;13.88;4.22;;;;;;;16.98;86.81;100542.72;5070825;28;20494;-80
2022/06/08 08:09:52;;;;;;;13.23;4.75;;;;;;;16.99;87.89;100541.72;5070068;28;20343;-79
2022/06/08 08:12:17;;;;;;;14.60;4.18;;;;;;;16.99;86.88;100541.72;5069574;28;20120;-79
2022/06/08 08:14:42;;;;;;;13.27;4.57;;;;;;;17.00;87.29;100540.72;5070917;28;20107;-79
2022/06/08 08:17:08;;;;;;;17.95;4.47;;;;;;;17.00;88.46;100542.56;5068010;28;20385;-79
2022/06/08 08:19:37;;;;;;;17.67;5.07;;;;;;;16.99;87.37;100541.72;5071340;28;20063;-79
2022/06/08 08:22:04;;;;;;;11.68;4.32;;;;;;;16.98;86.42;100541.88;5070333;28;20048;-79
2022/06/08 08:24:31;;;;;;;13.00;4.18;;;;;;;16.98;86.35;100533.72;5056474;28;20082;-79
2022/06/08 08:26:56;;;;;;;16.98;5.15;;;;;;;16.96;86.19;100535.78;5071307;28;20074;-79
2022/06/08 08:29:21;;;;;;;14.93;4.63;;;;;;;16.96;87.40;100544.75;5069771;28;20032;-80
2022/06/08 08:31:47;;;;;;;18.02;4.80;;;;;;;16.96;88.35;100538.50;5068237;28;20035;-80
2022/06/08 08:34:12;;;;;;;19.17;4.45;;;;;;;16.96;87.48;100531.19;5071274;28;20111;-80
2022/06/08 08:36:37;;;;;;;16.27;4.68;;;;;;;16.98;88.01;100537.28;5068057;28;20417;-80
2022/06/08 08:39:04;;;;;;;18.05;4.65;;;;;;;16.97;86.78;100534.75;5060920;28;20105;-80
2022/06/08 08:44:41;;;;;;;13.43;4.00;;;;;;;17.01;87.20;100538.84;5070716;28;20062;-79
2022/06/08 08:47:31;;;;;;;22.73;4.68;;;;;;;17.01;87.87;100538.84;5049530;28;20522;-79
2022/06/08 08:50:00;;;;;;;17.20;4.65;;;;;;;17.00;88.08;100538.00;5065801;28;20044;-80
2022/06/08 08:52:35;;;;;;;;;;;;;;;17.04;87.51;100538.50;5050226;28;20029;-80
2022/06/08 08:55:41;;;;;;;17.90;5.25;;;;;;;17.00;87.67;100539.84;5059259;28;20018;-80
2022/06/08 08:58:07;;;;;;;11.05;4.10;;;;;;;16.96;86.05;100531.19;5065452;28;20032;-80
2022/06/08 09:00:37;;;;;;;17.95;4.43;;;;;;;16.95;85.53;100540.34;5068020;28;20096;-79
2022/06/08 09:03:18;;;;;;;16.60;4.57;;;;;;;16.94;86.43;100544.06;5069554;28;20032;-80
2022/06/08 09:05:46;;;;;;;15.63;4.43;;;;;;;16.92;85.95;100541.50;5071104;28;20025;-80
2022/06/08 09:08:15;;;;;;;15.25;4.30;;;;;;;16.94;87.21;100541.34;5070868;28;20060;-79
2022/06/08 09:10:41;;;;;;;14.60;4.32;;;;;;;16.92;86.17;100541.50;5057062;28;20167;-80
2022/06/08 09:13:10;;;;;;;14.52;4.78;;;;;;;16.89;85.41;100541.00;5050828;28;20036;-79
2022/06/08 09:15:57;;;;;;;13.73;4.35;;;;;;;16.88;85.78;100542.88;5055432;28;20040;-80
2022/06/08 09:18:35;;;;;;;10.55;3.72;;;;;;;16.86;86.62;100541.28;5068981;28;20531;-80
2022/06/08 09:21:27;;;;;;;16.75;4.90;;;;;;;16.87;88.01;100548.41;5070801;28;20044;-80
2022/06/08 09:23:55;;;;;;;12.05;4.40;;;;;;;16.81;87.58;100544.47;5060217;28;20151;-79
2022/06/08 09:26:23;;;;;;;17.52;4.13;;;;;;;16.82;87.92;100538.03;5055895;28;20111;-79
2022/06/08 09:29:15;;;;;;;16.23;4.60;;;;;;;16.82;88.37;100540.72;5054313;28;20052;-79
2022/06/08 09:31:41;;;;;;;12.13;3.95;;;;;;;16.77;88.36;100538.50;5057097;28;20122;-79
2022/06/08 09:34:25;;;;;;;15.30;4.85;;;;;;;16.76;89.58;100542.25;5058622;28;20044;-79
2022/06/08 09:37:08;;;;;;;14.40;4.88;;;;;;;16.75;89.58;100545.09;5056218;28;20025;-79
2022/06/08 09:39:35;;;;;;;19.33;5.28;;;;;;;16.73;91.81;100547.13;5055910;28;20031;-79
2022/06/08 09:42:26;;;;;;;16.92;4.18;;;;;;;16.73;91.12;100541.72;5055029;28;20032;-79
2022/06/08 09:45:19;;;;;;;15.32;4.25;;;;;;;16.72;91.28;100542.72;5035295;28;20049;-79
2022/06/08 09:51:25;;;;;;;19.40;4.30;;;;;;;16.66;91.03;100549.66;5057954;28;20079;-78
2022/06/08 09:54:19;;;;;;;15.82;4.38;;;;;;;16.60;90.48;100551.13;5055972;28;20467;-79
2022/06/08 09:56:51;;;;;;;17.35;4.70;;;;;;;16.54;90.99;100564.47;5056416;28;20028;-79
2022/06/08 09:59:30;;;;;;;18.17;4.32;;;;;;;16.46;91.49;100551.72;5059299;28;20039;-79
2022/06/08 10:02:00;;;;;;;14.90;4.65;;;;;;;16.43;93.46;100552.03;5060918;28;20093;-79
2022/06/08 10:05:01;;;;;;;16.20;4.30;;;;;;;16.37;92.75;100558.06;5060680;28;20028;-79
2022/06/08 10:07:41;;;;;;;14.98;3.95;;;;;;;16.28;91.71;100554.44;5058742;28;20028;-79
2022/06/08 10:10:34;;;;;;;14.13;4.35;;;;;;;16.24;92.03;100553.06;5060021;28;20136;-79
2022/06/08 10:13:09;;;;;;;16.58;4.80;;;;;;;16.19;94.10;100549.97;5060950;28;20090;-79
2022/06/08 10:15:46;;;;;;;17.17;4.55;;;;;;;16.14;94.20;100558.56;5058921;28;20029;-79
2022/06/08 10:18:24;;;;;;;15.55;4.60;;;;;;;16.12;94.75;100555.19;5058915;28;20074;-79
2022/06/08 10:20:55;;;;;;;12.13;4.25;;;;;;;16.07;96.05;100555.63;5056017;28;20052;-79
2022/06/08 10:23:26;;;;;;;18.38;4.68;;;;;;;16.03;94.89;100551.53;5057755;28;20090;-80
2022/06/08 10:25:59;;;;;;;17.27;4.28;;;;;;;16.02;96.88;100555.25;5060579;28;21160;-79
2022/06/08 10:28:32;;;;;;;18.30;5.43;;;;;;;16.03;97.56;100550.66;5060439;28;20388;-79
2022/06/08 10:31:13;;;;;;;14.85;4.47;;;;;;;16.04;97.70;100550.50;5059292;28;20031;-79
2022/06/08 10:33:55;;;;;;;15.77;4.45;;;;;;;16.04;96.95;100546.97;5057682;28;20063;-79
2022/06/08 10:36:22;;;;;;;14.20;4.38;;;;;;;16.01;96.88;100542.69;5060407;28;20034;-79
2022/06/08 10:38:47;;;;;;;19.52;5.07;;;;;;;15.98;97.08;100547.59;5057898;28;20076;-79
2022/06/08 10:44:04;;;;;;;16.38;4.85;;;;;;;16.02;98.82;100549.81;5060893;28;20052;-79
2022/06/08 10:46:47;;;;;;;14.13;4.32;;;;;;;16.01;96.62;100548.13;5059918;28;20031;-79
2022/06/08 10:49:40;;;;;;;16.88;4.10;;;;;;;16.01;95.81;100541.84;5061409;28;20036;-80
2022/06/08 10:52:13;;;;;;;13.82;4.72;;;;;;;16.01;95.46;100541.84;5059052;28;20064;-79
2022/06/08 10:54:57;;;;;;;17.20;4.90;;;;;;;16.00;94.94;100541.00;5058981;28;21925;-79
2022/06/08 10:57:49;;;;;;;14.27;4.68;;;;;;;16.05;95.76;100533.25;5059197;28;20035;-79
2022/06/08 11:00:18;;;;;;;17.35;4.38;;;;;;;16.05;96.92;100538.66;5055201;28;20049;-79
2022/06/08 11:03:02;;;;;;;15.85;5.00;;;;;;;16.08;97.29;100532.94;5053973;28;20043;-79
2022/06/08 11:05:35;;;;;;;13.18;4.28;;;;;;;16.12;97.24;100529.91;5057659;28;20058;-80
2022/06/08 11:08:06;;;;;;;11.60;3.90;;;;;;;16.15;96.18;100527.75;5058341;28;20028;-79
2022/06/08 11:10:44;;;;;;;13.13;4.03;;;;;;;16.15;95.33;100533.16;5057017;28;20107;-79
2022/06/08 11:13:22;;;;;;;21.90;5.05;;;;;;;16.13;94.36;100520.78;5057939;28;20031;-79
2022/06/08 11:15:55;;;;;;;14.57;3.93;;;;;;;16.10;94.22;100521.09;5058626;28;20043;-79
2022/06/08 11:18:31;;;;;;;13.98;3.90;;;;;;;16.07;94.79;100514.13;5056548;28;20462;-79
2022/06/08 11:20:59;;;;;;;11.98;3.67;;;;;;;16.05;93.76;100510.72;5057133;28;20052;-80
2022/06/08 11:23:31;;;;;;;18.20;4.43;;;;;;;16.04;95.76;100507.13;5059391;28;20111;-79
2022/06/08 11:26:05;;;;;;;18.98;4.72;;;;;;;16.04;95.13;100504.44;5057837;28;20036;-79
2022/06/08 11:28:47;;;;;;;12.88;3.45;;;;;;;16.05;96.79;100506.13;5062740;28;20051;-80
2022/06/08 11:31:33;;;;;;;11.82;3.78;;;;;;;16.03;94.94;100504.59;5051704;28;21052;-80
2022/06/08 11:34:20;;;;;;;13.52;4.90;;;;;;;16.00;97.38;100497.66;5048138;28;20039;-80
2022/06/08 11:37:21;;;;;;;11.45;3.92;;;;;;;16.01;95.92;100501.19;5057984;28;20093;-80
2022/06/08 11:40:10;;;;;;;13.48;3.55;;;;;;;15.98;95.66;100491.50;5049874;28;20097;-79
2022/06/08 11:42:53;;;;;;;14.80;3.95;;;;;;;15.98;95.67;100487.97;5061661;28;20032;-79
2022/06/08 11:45:22;;;;;;;14.43;4.43;;;;;;;15.95;97.21;100482.84;5067744;28;20031;-79
2022/06/08 11:48:13;;;;;;;12.57;3.75;;;;;;;15.93;96.17;100482.13;5060572;28;20024;-79